Salt Lake City, Utah
Traffic Map
Current Weather Conditions
Salt Lake City, Utah
Broken Clouds
Broken Clouds
24°
Feels Like: 24°
Wind Chill: 24° Ceiling: 14000
Heat Index: 24° Visibility: 10mi
Dew Point: Wind: 10mph
Humidity: 35% Direction: 160° (SSE)
Pressure: 29.95in Gusts: 0mph
Raw Report DataKSLC 050753Z 16009KT 10SM BKN140 BKN200 24/08 A2995 RMK AO2 SLP081 T02440078
Traffic Incident Summary
Active as of:
Severity:
Category:
InformationThere was an issue retrieving the traffic information for this location. Please try a different location or try again shortly.
Advertisements
Track Severe Weather on mobile